Time;durP1;ratioP1;P1;durP2;ratioP2;P2;SDS_P1;SDS_P2;PMS_P1;PMS_P2;Temp;Humidity;BMP_temperature;BMP_pressure;BME280_temperature;BME280_humidity;BME280_pressure;Samples;Min_cycle;Max_cycle;Signal;HPM_P1;HPM_P2
2022/05/10 00:00:37;;;;;;;18.40;9.70;;;12.30;99.90;;;;;;5078266;28;20044;-73
2022/05/10 00:03:06;;;;;;;18.40;9.07;;;12.30;99.90;;;;;;5075517;28;20072;-74
2022/05/10 00:05:37;;;;;;;23.00;9.95;;;12.30;99.90;;;;;;5076782;28;20127;-75
2022/05/10 00:08:06;;;;;;;18.92;9.50;;;12.30;99.90;;;;;;5074136;28;20075;-77
2022/05/10 00:10:33;;;;;;;16.08;8.40;;;12.20;99.90;;;;;;5072998;28;20071;-76
2022/05/10 00:12:58;;;;;;;21.75;8.95;;;12.50;99.90;;;;;;5072940;28;20078;-75
2022/05/10 00:15:24;;;;;;;21.73;9.43;;;13.30;99.90;;;;;;5072717;28;20178;-75
2022/05/10 00:17:50;;;;;;;15.23;8.13;;;12.30;99.90;;;;;;5072759;28;20059;-75
2022/05/10 00:20:21;;;;;;;16.92;7.97;;;12.10;99.90;;;;;;5072590;28;20457;-75
2022/05/10 00:22:47;;;;;;;20.73;9.20;;;12.20;99.90;;;;;;5038195;28;20040;-75
2022/05/10 00:25:18;;;;;;;18.40;8.40;;;12.30;99.90;;;;;;5072362;28;20521;-76
2022/05/10 00:27:43;;;;;;;20.40;8.82;;;12.60;99.90;;;;;;5072575;28;20044;-75
2022/05/10 00:30:10;;;;;;;13.75;8.40;;;12.30;99.90;;;;;;5072406;28;20471;-75
2022/05/10 00:32:37;;;;;;;19.73;8.77;;;12.20;99.90;;;;;;5072346;28;20407;-76
2022/05/10 00:35:10;;;;;;;19.55;8.68;;;12.50;99.90;;;;;;5072402;28;20060;-76
2022/05/10 00:37:36;;;;;;;18.13;8.65;;;12.50;99.90;;;;;;5072217;28;20084;-75
2022/05/10 00:40:02;;;;;;;14.60;8.32;;;12.60;99.90;;;;;;5054494;28;20092;-76
2022/05/10 00:42:38;;;;;;;17.45;8.27;;;12.80;99.90;;;;;;5072241;28;20178;-75
2022/05/10 00:45:08;;;;;;;16.50;8.18;;;12.60;99.90;;;;;;5072381;28;20131;-76
2022/05/10 00:47:43;;;;;;;15.80;8.32;;;12.50;99.90;;;;;;5054626;28;20048;-77
2022/05/10 00:50:22;;;;;;;18.88;8.60;;;12.20;99.90;;;;;;5072164;28;20488;-76
2022/05/10 00:52:59;;;;;;;23.35;9.60;;;12.20;99.90;;;;;;5041976;28;20120;-76
2022/05/10 00:55:27;;;;;;;;;;;12.20;99.90;;;;;;5077045;28;20040;-75
2022/05/10 00:58:01;;;;;;;17.88;8.18;;;12.20;99.90;;;;;;5076282;28;19924;-76
2022/05/10 01:00:29;;;;;;;13.88;8.57;;;12.10;99.90;;;;;;5076288;28;20051;-74
2022/05/10 01:03:11;;;;;;;15.98;8.77;;;12.30;99.90;;;;;;5064805;28;20056;-74
2022/05/10 01:06:19;;;;;;;16.05;7.88;;;12.40;99.90;;;;;;5081956;28;20037;-74
2022/05/10 01:08:44;;;;;;;14.20;7.90;;;12.20;99.90;;;;;;4980010;28;20073;-74
2022/05/10 01:11:25;;;;;;;16.13;7.93;;;12.50;99.90;;;;;;5059674;28;20060;-74
2022/05/10 01:14:08;;;;;;;17.90;8.05;;;12.20;99.90;;;;;;5079857;28;20044;-75
2022/05/10 01:16:34;;;;;;;27.25;7.88;;;12.60;99.90;;;;;;5077530;28;20059;-76
2022/05/10 01:19:00;;;;;;;;;;;12.50;99.90;;;;;;5076132;28;20055;-77
2022/05/10 01:21:47;;;;;;;15.68;8.15;;;13.30;99.90;;;;;;5075664;28;20271;-74
2022/05/10 01:24:13;;;;;;;15.65;8.23;;;12.30;99.90;;;;;;5075765;28;20075;-76
2022/05/10 01:26:48;;;;;;;18.65;7.57;;;12.50;99.90;;;;;;5075675;28;20068;-77
2022/05/10 01:29:35;;;;;;;14.30;8.02;;;12.40;99.90;;;;;;5075290;28;20063;-75
2022/05/10 01:34:53;;;;;;;14.77;8.73;;;12.30;99.90;;;;;;5075365;28;20096;-76
2022/05/10 01:37:25;;;;;;;17.83;8.93;;;13.90;99.90;;;;;;5075448;28;20051;-76
2022/05/10 01:39:57;;;;;;;18.85;8.98;;;12.70;99.90;;;;;;5057272;28;20068;-75
2022/05/10 01:42:30;;;;;;;14.60;8.48;;;14.00;99.90;;;;;;5075292;28;20098;-76
2022/05/10 01:45:05;;;;;;;20.15;9.10;;;12.40;99.90;;;;;;5075461;28;20444;-75
2022/05/10 01:47:54;;;;;;;15.25;8.43;;;12.60;99.90;;;;;;5057425;28;20507;-76
2022/05/10 01:50:19;;;;;;;14.93;8.35;;;12.60;99.90;;;;;;5057045;28;20059;-76
2022/05/10 01:52:58;;;;;;;17.83;9.30;;;12.50;99.90;;;;;;5075012;28;20044;-77
2022/05/10 01:55:29;;;;;;;19.75;8.80;;;12.00;99.90;;;;;;5057341;28;20098;-77
2022/05/10 01:57:59;;;;;;;21.30;8.85;;;13.60;99.90;;;;;;5057435;28;20491;-77
2022/05/10 02:00:27;;;;;;;18.23;9.25;;;12.40;99.90;;;;;;5074905;28;20044;-76
2022/05/10 02:03:10;;;;;;;17.63;9.50;;;13.40;99.90;;;;;;5074263;28;20123;-77
2022/05/10 02:06:06;;;;;;;20.45;9.57;;;12.20;99.90;;;;;;5075018;28;20041;-76
2022/05/10 02:08:45;;;;;;;23.08;9.38;;;12.20;99.90;;;;;;5074869;28;20052;-76
2022/05/10 02:11:15;;;;;;;19.23;9.02;;;12.10;99.90;;;;;;5074770;28;20095;-77
2022/05/10 02:14:02;;;;;;;20.15;9.40;;;12.00;99.90;;;;;;5074813;28;20052;-77
2022/05/10 02:16:50;;;;;;;;;;;11.80;99.90;;;;;;5057524;28;20048;-76
2022/05/10 02:19:23;;;;;;;15.88;10.07;;;12.00;99.90;;;;;;5057035;28;20310;-76
2022/05/10 02:21:56;;;;;;;21.23;9.48;;;11.80;99.90;;;;;;5056741;28;20102;-77
2022/05/10 02:24:38;;;;;;;12.40;8.77;;;12.70;99.90;;;;;;5074765;28;20045;-77
2022/05/10 02:27:16;;;;;;;21.88;8.95;;;12.30;99.90;;;;;;5056769;28;20062;-77
2022/05/10 02:29:47;;;;;;;16.60;9.45;;;11.80;99.90;;;;;;5074231;28;20130;-77
2022/05/10 02:35:15;;;;;;;25.40;9.32;;;11.90;99.90;;;;;;5074170;28;20051;-77
2022/05/10 02:37:41;;;;;;;16.55;9.70;;;12.60;99.90;;;;;;5074290;28;20403;-76
2022/05/10 02:40:07;;;;;;;17.73;9.75;;;11.60;99.90;;;;;;5073919;28;20053;-76
2022/05/10 02:42:33;;;;;;;18.05;9.18;;;11.70;99.90;;;;;;5073889;28;20136;-73
2022/05/10 02:45:00;;;;;;;;;;;12.70;99.90;;;;;;5057068;28;20591;-75
2022/05/10 02:47:38;;;;;;;16.85;9.32;;;12.40;99.90;;;;;;5056290;28;19920;-75
2022/05/10 02:50:13;;;;;;;13.57;8.85;;;11.90;99.90;;;;;;5074013;28;20045;-73
2022/05/10 02:52:39;;;;;;;18.95;8.90;;;11.70;99.90;;;;;;5073847;28;20106;-76
2022/05/10 02:55:27;;;;;;;19.67;9.48;;;13.00;99.90;;;;;;5055981;28;20052;-75
2022/05/10 02:57:56;;;;;;;19.08;9.40;;;13.30;99.90;;;;;;5073997;28;20041;-75
2022/05/10 03:00:24;;;;;;;19.92;8.95;;;11.60;99.90;;;;;;5073672;28;20084;-75
2022/05/10 03:02:56;;;;;;;18.73;9.52;;;12.00;99.90;;;;;;5073673;28;20121;-75
2022/05/10 03:05:22;;;;;;;17.20;9.32;;;12.00;99.90;;;;;;5073574;28;20563;-74
2022/05/10 03:07:47;;;;;;;17.38;9.20;;;12.00;99.90;;;;;;5073442;28;20131;-76
2022/05/10 03:10:13;;;;;;;16.42;9.30;;;12.10;99.90;;;;;;5055577;28;20051;-75
2022/05/10 03:12:39;;;;;;;20.10;9.70;;;12.20;99.90;;;;;;5073129;28;20581;-73
2022/05/10 03:15:06;;;;;;;16.55;9.38;;;12.10;99.90;;;;;;5073146;28;20048;-77
2022/05/10 03:17:32;;;;;;;16.70;9.50;;;12.00;99.90;;;;;;5072824;28;20088;-75
2022/05/10 03:19:57;;;;;;;18.50;10.10;;;12.00;99.90;;;;;;5073422;28;20091;-77
2022/05/10 03:22:23;;;;;;;16.48;9.98;;;12.00;99.90;;;;;;5038937;28;20419;-75
2022/05/10 03:24:49;;;;;;;19.58;10.88;;;12.50;99.90;;;;;;5073520;28;20459;-74
2022/05/10 03:27:16;;;;;;;18.20;10.23;;;12.10;99.90;;;;;;5055711;28;20373;-76
2022/05/10 03:29:42;;;;;;;21.80;10.68;;;11.90;99.90;;;;;;5073252;28;20040;-75
2022/05/10 03:32:09;;;;;;;19.08;10.30;;;11.70;99.90;;;;;;5055507;28;20040;-70
2022/05/10 03:34:54;;;;;;;23.33;11.50;;;11.70;99.90;;;;;;5072943;28;20441;-75
2022/05/10 03:37:20;;;;;;;23.10;11.10;;;12.10;99.90;;;;;;5058266;28;20050;-75
2022/05/10 03:39:46;;;;;;;15.52;9.65;;;12.40;99.90;;;;;;5054919;28;20051;-77
2022/05/10 03:42:11;;;;;;;19.63;10.40;;;12.70;99.90;;;;;;5055176;28;20045;-76
2022/05/10 03:44:37;;;;;;;16.50;10.50;;;12.80;99.90;;;;;;5072888;28;20040;-76
2022/05/10 03:47:04;;;;;;;;;;;12.10;99.90;;;;;;5055415;28;20037;-74
2022/05/10 03:49:29;;;;;;;23.30;10.63;;;11.90;99.90;;;;;;5072627;28;20457;-75
2022/05/10 03:51:55;;;;;;;16.27;10.30;;;12.00;99.90;;;;;;5073037;28;20053;-77
2022/05/10 03:54:22;;;;;;;19.80;11.45;;;11.90;99.90;;;;;;5072882;28;20052;-76
2022/05/10 03:56:48;;;;;;;17.98;10.95;;;13.00;99.90;;;;;;5072749;28;20381;-76
2022/05/10 03:59:14;;;;;;;20.92;11.40;;;13.30;99.90;;;;;;5072660;28;20047;-76
2022/05/10 04:01:39;;;;;;;24.77;11.30;;;12.50;99.90;;;;;;5038345;28;20093;-76
2022/05/10 04:04:05;;;;;;;20.85;11.60;;;12.80;99.90;;;;;;5072619;28;20067;-76
2022/05/10 04:06:31;;;;;;;21.17;12.23;;;12.10;99.90;;;;;;5072669;28;20052;-77
2022/05/10 04:08:57;;;;;;;18.42;11.48;;;12.30;99.90;;;;;;5054789;28;20040;-74
2022/05/10 04:11:23;;;;;;;;;;;13.20;99.90;;;;;;5072804;28;20044;-76
2022/05/10 04:13:49;;;;;;;17.15;12.00;;;12.90;99.90;;;;;;5054903;28;19920;-76
2022/05/10 04:16:16;;;;;;;20.55;11.80;;;12.10;99.90;;;;;;5072581;28;20044;-75
2022/05/10 04:18:42;;;;;;;19.95;11.75;;;11.90;99.90;;;;;;5072356;28;20059;-77
2022/05/10 04:21:08;;;;;;;20.52;12.02;;;11.90;99.90;;;;;;5072685;28;20044;-75
2022/05/10 04:23:35;;;;;;;27.40;12.45;;;12.40;99.90;;;;;;5072469;28;20056;-76
2022/05/10 04:26:05;;;;;;;24.75;11.95;;;11.20;99.90;;;;;;5072413;28;20092;-77
2022/05/10 04:28:33;;;;;;;20.60;12.27;;;12.60;99.90;;;;;;5072344;28;20048;-76
2022/05/10 04:30:58;;;;;;;19.02;12.00;;;12.30;99.90;;;;;;5054293;28;20048;-76
2022/05/10 04:33:24;;;;;;;20.80;11.35;;;13.30;99.90;;;;;;5072124;28;20051;-76
2022/05/10 04:35:50;;;;;;;21.50;11.70;;;12.40;99.90;;;;;;5072385;28;20045;-75
2022/05/10 04:38:15;;;;;;;19.77;12.02;;;12.10;99.90;;;;;;5054656;28;20044;-77
2022/05/10 04:43:35;;;;;;;22.17;11.85;;;12.50;99.90;;;;;;5071994;28;20055;-74
2022/05/10 04:46:01;;;;;;;20.23;11.57;;;12.70;99.90;;;;;;5054140;28;20090;-76
2022/05/10 04:48:27;;;;;;;22.25;12.10;;;12.70;99.90;;;;;;5054302;28;20048;-75
2022/05/10 04:50:54;;;;;;;17.20;11.85;;;12.30;99.90;;;;;;5054030;28;20044;-75
2022/05/10 04:53:19;;;;;;;;;;;12.50;99.90;;;;;;5072495;28;20086;-75
2022/05/10 04:55:45;;;;;;;21.85;11.55;;;12.50;99.90;;;;;;5054269;28;19920;-75
2022/05/10 04:58:13;;;;;;;23.15;12.82;;;13.00;99.90;;;;;;5071946;28;20550;-78
2022/05/10 05:00:39;;;;;;;20.63;12.18;;;13.00;99.90;;;;;;5054634;28;20049;-76
2022/05/10 05:03:05;;;;;;;21.30;12.27;;;12.90;99.90;;;;;;5054434;28;20093;-75
2022/05/10 05:05:30;;;;;;;18.77;11.52;;;12.80;99.90;;;;;;5071961;28;20052;-76
2022/05/10 05:07:56;;;;;;;22.38;13.48;;;13.80;99.90;;;;;;5072100;28;20066;-76
2022/05/10 05:10:22;;;;;;;23.85;12.68;;;12.90;99.90;;;;;;5054020;28;20487;-77
2022/05/10 05:12:47;;;;;;;20.67;12.02;;;13.20;99.90;;;;;;5054080;28;20406;-73
2022/05/10 05:15:13;;;;;;;22.50;11.90;;;13.10;99.90;;;;;;5072194;28;20047;-76
2022/05/10 05:17:39;;;;;;;18.67;11.95;;;13.30;99.90;;;;;;5054367;28;20048;-75
2022/05/10 05:20:05;;;;;;;24.15;13.50;;;13.20;99.90;;;;;;5071937;28;20052;-75
2022/05/10 05:22:31;;;;;;;25.00;12.68;;;13.50;99.90;;;;;;5054078;28;20739;-76
2022/05/10 05:24:56;;;;;;;21.52;12.30;;;13.70;99.90;;;;;;5071677;28;20106;-75
2022/05/10 05:27:22;;;;;;;26.25;12.18;;;13.60;99.90;;;;;;5071589;28;20048;-75
2022/05/10 05:29:48;;;;;;;20.92;11.90;;;13.80;99.90;;;;;;5071803;28;20090;-75
2022/05/10 05:32:15;;;;;;;;;;;13.70;99.90;;;;;;5072220;28;20080;-72
2022/05/10 05:34:41;;;;;;;20.10;11.98;;;13.70;99.90;;;;;;5071796;28;20014;-74
2022/05/10 05:39:50;;;;;;;22.10;12.93;;;14.10;99.90;;;;;;5074943;28;20052;-76
2022/05/10 05:42:18;;;;;;;26.45;12.65;;;14.20;99.90;;;;;;5075220;28;20524;-74
2022/05/10 05:44:44;;;;;;;18.95;12.18;;;14.00;99.90;;;;;;5074913;28;20579;-75
2022/05/10 05:47:10;;;;;;;18.55;11.60;;;13.80;99.90;;;;;;5075047;28;20127;-77
2022/05/10 05:49:35;;;;;;;22.33;12.23;;;14.10;99.90;;;;;;5056948;28;20044;-76
2022/05/10 05:52:03;;;;;;;21.65;12.38;;;13.90;99.90;;;;;;5075027;28;20074;-75
2022/05/10 05:54:28;;;;;;;24.35;12.65;;;14.30;99.90;;;;;;5075143;28;20056;-77
2022/05/10 05:57:05;;;;;;;21.00;11.70;;;14.30;99.90;;;;;;5075117;28;20185;-77
2022/05/10 05:59:31;;;;;;;25.05;12.15;;;14.30;99.90;;;;;;5057103;28;20056;-77
2022/05/10 06:01:57;;;;;;;21.98;12.10;;;14.30;99.90;;;;;;5074912;28;20080;-74
2022/05/10 06:04:23;;;;;;;23.30;12.27;;;14.40;99.90;;;;;;5074606;28;20049;-75
2022/05/10 06:06:49;;;;;;;17.23;12.68;;;14.60;99.90;;;;;;5057107;28;20094;-75
2022/05/10 06:09:15;;;;;;;20.88;11.88;;;14.80;99.90;;;;;;5056816;28;20037;-73
2022/05/10 06:11:41;;;;;;;;;;;14.70;99.90;;;;;;5057484;28;20087;-75
2022/05/10 06:14:07;;;;;;;17.20;11.30;;;14.90;99.90;;;;;;5056899;28;19933;-77
2022/05/10 06:16:33;;;;;;;;;;;14.80;99.90;;;;;;5075004;28;20045;-76
2022/05/10 06:18:59;;;;;;;20.13;11.88;;;15.10;99.90;;;;;;5074524;28;19920;-75
2022/05/10 06:21:24;;;;;;;;;;;15.20;99.90;;;;;;5056921;28;20048;-76
2022/05/10 06:23:50;;;;;;;23.45;11.23;;;15.40;99.90;;;;;;5074070;28;19928;-75
2022/05/10 06:26:15;;;;;;;;;;;15.80;99.90;;;;;;5074694;28;20098;-76
2022/05/10 06:28:42;;;;;;;21.95;11.48;;;15.80;99.90;;;;;;5051168;28;20674;-75
2022/05/10 06:31:09;;;;;;;17.67;11.23;;;15.70;99.90;;;;;;5015251;28;20505;-75
2022/05/10 06:33:36;;;;;;;16.80;10.93;;;16.10;99.90;;;;;;5051822;28;20053;-67
2022/05/10 06:36:03;;;;;;;14.77;10.63;;;16.40;99.90;;;;;;5051471;28;20114;-71
2022/05/10 06:38:29;;;;;;;19.08;11.63;;;16.50;99.90;;;;;;5053174;28;20052;-74
2022/05/10 06:40:57;;;;;;;16.48;10.30;;;16.50;99.90;;;;;;5052760;28;20060;-67
2022/05/10 06:43:23;;;;;;;17.50;10.35;;;16.60;99.90;;;;;;5052200;28;20053;-75
2022/05/10 06:45:49;;;;;;;;;;;16.40;99.90;;;;;;5051756;28;20067;-75
2022/05/10 06:48:16;;;;;;;17.25;10.10;;;16.50;99.90;;;;;;5052761;28;20004;-73
2022/05/10 06:50:42;;;;;;;18.05;9.75;;;16.40;99.90;;;;;;5052259;28;20077;-70
2022/05/10 06:53:09;;;;;;;14.50;9.30;;;16.80;99.90;;;;;;5052778;28;20055;-73
2022/05/10 06:55:36;;;;;;;14.25;9.63;;;17.10;99.90;;;;;;5051361;28;20053;-73
2022/05/10 06:58:03;;;;;;;16.95;9.18;;;16.90;99.90;;;;;;5030732;28;20041;-73
2022/05/10 07:00:29;;;;;;;14.73;9.10;;;16.60;99.90;;;;;;5052493;28;20128;-73
2022/05/10 07:02:55;;;;;;;13.77;9.30;;;16.90;99.90;;;;;;5052728;28;20045;-75
2022/05/10 07:05:21;;;;;;;15.38;9.15;;;17.00;99.90;;;;;;5050718;28;20053;-71
2022/05/10 07:07:47;;;;;;;16.13;8.98;;;17.00;99.90;;;;;;5052402;28;20049;-70
2022/05/10 07:10:13;;;;;;;;;;;16.90;99.90;;;;;;5053128;28;20052;-73
2022/05/10 07:12:41;;;;;;;12.15;8.80;;;17.10;99.90;;;;;;5052108;28;20012;-77
2022/05/10 07:15:09;;;;;;;11.23;8.65;;;17.20;99.90;;;;;;5031418;28;20049;-71
2022/05/10 07:17:38;;;;;;;18.70;9.68;;;17.20;99.90;;;;;;5051034;28;20061;-71
2022/05/10 07:20:09;;;;;;;14.70;8.75;;;17.50;99.90;;;;;;5051343;28;20045;-71
2022/05/10 07:22:35;;;;;;;14.40;8.95;;;17.10;99.90;;;;;;5017758;28;20512;-72
2022/05/10 07:25:01;;;;;;;17.77;9.00;;;17.30;99.90;;;;;;5034449;28;20084;-71
2022/05/10 07:27:26;;;;;;;13.50;8.77;;;17.20;99.90;;;;;;5050213;28;20122;-72
2022/05/10 07:29:52;;;;;;;18.35;9.40;;;17.40;99.90;;;;;;5047846;28;20571;-71
2022/05/10 07:32:20;;;;;;;13.30;8.90;;;17.60;99.90;;;;;;5053203;28;20051;-70
2022/05/10 07:34:46;;;;;;;15.93;8.93;;;17.40;99.90;;;;;;5056614;28;20056;-69
2022/05/10 07:37:12;;;;;;;13.23;8.65;;;17.60;99.90;;;;;;5042139;28;20424;-76
2022/05/10 07:39:38;;;;;;;13.32;8.68;;;17.50;99.90;;;;;;5057667;28;20080;-73
2022/05/10 07:42:04;;;;;;;11.57;8.02;;;17.70;99.90;;;;;;5055067;28;20099;-71
2022/05/10 07:44:31;;;;;;;15.98;8.57;;;17.80;99.90;;;;;;5050168;28;20554;-71
2022/05/10 07:46:57;;;;;;;14.57;8.48;;;17.40;99.90;;;;;;5033444;28;20361;-70
2022/05/10 07:49:23;;;;;;;13.35;8.10;;;17.80;99.90;;;;;;5049420;28;20037;-69
2022/05/10 07:51:48;;;;;;;17.73;9.43;;;17.80;99.90;;;;;;5050333;28;20190;-72
2022/05/10 07:54:14;;;;;;;;;;;17.70;99.90;;;;;;5033596;28;20052;-70
2022/05/10 07:56:42;;;;;;;19.58;9.20;;;17.80;99.90;;;;;;5049248;28;19963;-69
2022/05/10 07:59:08;;;;;;;15.70;8.60;;;17.50;99.90;;;;;;5050765;28;20045;-71
2022/05/10 08:01:33;;;;;;;;;;;17.80;99.90;;;;;;5050612;28;20064;-68
2022/05/10 08:03:59;;;;;;;13.48;8.55;;;18.10;99.90;;;;;;5048615;28;19925;-71
2022/05/10 08:06:26;;;;;;;15.65;8.20;;;18.00;99.90;;;;;;5056907;28;20400;-70
2022/05/10 08:08:52;;;;;;;12.38;8.80;;;18.10;99.90;;;;;;5050681;28;20056;-71
2022/05/10 08:11:18;;;;;;;16.63;9.35;;;18.10;99.90;;;;;;5050726;28;20037;-70
2022/05/10 08:13:44;;;;;;;11.63;8.48;;;18.50;99.90;;;;;;5050869;28;20052;-72
2022/05/10 08:16:10;;;;;;;14.98;8.57;;;18.50;99.90;;;;;;5049452;28;20179;-71
2022/05/10 08:18:44;;;;;;;14.20;8.63;;;18.70;99.90;;;;;;5049831;28;20120;-72
2022/05/10 08:21:09;;;;;;;12.50;8.20;;;18.50;99.90;;;;;;5050870;28;20134;-73
2022/05/10 08:23:36;;;;;;;13.55;8.50;;;18.50;99.90;;;;;;5050738;28;20515;-70
2022/05/10 08:26:03;;;;;;;15.30;8.57;;;18.70;99.90;;;;;;5051571;28;20526;-68
2022/05/10 08:28:30;;;;;;;13.05;7.63;;;18.90;99.90;;;;;;5034389;28;20052;-71
2022/05/10 08:30:57;;;;;;;16.05;8.20;;;18.60;99.90;;;;;;5051199;28;20477;-72
2022/05/10 08:33:31;;;;;;;12.55;7.60;;;18.90;99.90;;;;;;5052119;28;20057;-68
2022/05/10 08:35:58;;;;;;;9.20;6.63;;;19.20;99.90;;;;;;5034065;28;20048;-72
2022/05/10 08:38:24;;;;;;;13.40;6.63;;;19.10;99.90;;;;;;5051957;28;20132;-71
2022/05/10 08:41:03;;;;;;;13.15;6.20;;;19.10;99.90;;;;;;5051618;28;20061;-69
2022/05/10 08:43:32;;;;;;;12.13;6.78;;;19.10;99.90;;;;;;5051812;28;20111;-70
2022/05/10 08:45:58;;;;;;;12.10;6.65;;;19.30;99.90;;;;;;5051921;28;20049;-70
2022/05/10 08:48:28;;;;;;;11.82;6.07;;;19.20;99.90;;;;;;5051723;28;20088;-72
2022/05/10 08:50:55;;;;;;;15.73;6.95;;;19.70;99.90;;;;;;5046971;28;20065;-70
2022/05/10 08:53:21;;;;;;;13.40;6.20;;;19.40;99.90;;;;;;5050329;28;20048;-70
2022/05/10 08:55:58;;;;;;;11.35;6.60;;;19.20;99.90;;;;;;5050571;28;20048;-68
2022/05/10 08:58:43;;;;;;;12.43;6.13;;;19.30;99.90;;;;;;5050316;28;20130;-69
2022/05/10 09:01:15;;;;;;;16.05;6.30;;;19.90;99.90;;;;;;5047981;28;20404;-69
2022/05/10 09:03:57;;;;;;;9.15;5.25;;;19.90;99.90;;;;;;5050714;28;20053;-70
2022/05/10 09:06:23;;;;;;;10.38;4.80;;;19.80;99.90;;;;;;5049592;28;20053;-70
2022/05/10 09:09:00;;;;;;;11.55;5.22;;;20.20;99.90;;;;;;5050554;28;20052;-66
2022/05/10 09:11:30;;;;;;;11.52;5.00;;;20.20;99.90;;;;;;5032941;28;20488;-75
2022/05/10 09:13:56;;;;;;;15.27;5.15;;;19.90;99.90;;;;;;5036429;28;20057;-70
2022/05/10 09:16:22;;;;;;;9.38;4.90;;;20.30;99.90;;;;;;5053831;28;20480;-70
2022/05/10 09:18:49;;;;;;;11.75;5.10;;;20.10;99.90;;;;;;5053796;28;20040;-71
2022/05/10 09:21:37;;;;;;;13.18;5.03;;;19.20;99.90;;;;;;5055280;28;20077;-69
2022/05/10 09:24:31;;;;;;;10.40;4.70;;;20.40;99.90;;;;;;5055146;28;20048;-71
2022/05/10 09:27:12;;;;;;;10.32;4.47;;;20.70;99.90;;;;;;5054379;28;20489;-69
2022/05/10 09:29:39;;;;;;;11.48;4.50;;;20.50;99.90;;;;;;5053969;28;20045;-70
2022/05/10 09:35:14;;;;;;;13.27;4.53;;;21.00;99.90;;;;;;5055160;28;20095;-69
2022/05/10 09:37:53;;;;;;;11.93;5.60;;;21.00;99.90;;;;;;5036282;28;20044;-69
2022/05/10 09:40:37;;;;;;;13.75;4.95;;;21.00;99.90;;;;;;5054417;28;20041;-67
2022/05/10 09:43:32;;;;;;;8.85;4.72;;;21.10;99.90;;;;;;5055092;28;20049;-70
2022/05/10 09:46:19;;;;;;;16.77;5.63;;;21.00;99.90;;;;;;5054921;28;20077;-69
2022/05/10 09:48:47;;;;;;;14.57;5.38;;;20.90;99.90;;;;;;5050302;28;20764;-69
2022/05/10 09:51:31;;;;;;;20.02;5.20;;;20.80;99.90;;;;;;5054356;28;20132;-67
2022/05/10 09:53:57;;;;;;;11.77;6.15;;;21.10;99.90;;;;;;5036486;28;20045;-72
2022/05/10 09:56:23;;;;;;;18.50;6.47;;;21.20;99.90;;;;;;5055671;28;20052;-67
2022/05/10 09:58:58;;;;;;;15.18;5.95;;;21.10;99.90;;;;;;5071285;28;20046;-67
2022/05/10 10:01:58;;;;;;;16.02;6.38;;;21.00;99.90;;;;;;5074400;28;20445;-68
2022/05/10 10:04:34;;;;;;;12.32;6.25;;;21.20;99.90;;;;;;5020776;28;20053;-67
2022/05/10 10:07:03;;;;;;;;;;;21.30;99.90;;;;;;5074920;28;20083;-68
2022/05/10 10:09:32;;;;;;;13.23;5.90;;;20.90;99.90;;;;;;5071932;28;19920;-67
2022/05/10 10:11:58;;;;;;;17.50;6.20;;;21.10;99.90;;;;;;5056876;28;20424;-67
2022/05/10 10:14:43;;;;;;;12.70;5.70;;;21.20;99.90;;;;;;5054302;28;20434;-68
2022/05/10 10:17:22;;;;;;;16.27;6.65;;;21.60;99.90;;;;;;5054500;28;20119;-66
2022/05/10 10:20:21;;;;;;;16.95;6.38;;;21.60;99.90;;;;;;5055311;28;20436;-67
2022/05/10 10:22:54;;;;;;;19.55;6.32;;;21.40;99.90;;;;;;5016533;28;20057;-67
2022/05/10 10:25:25;;;;;;;12.13;6.25;;;21.60;99.90;;;;;;5034149;28;20058;-67
2022/05/10 10:27:54;;;;;;;17.08;6.75;;;21.10;99.90;;;;;;5033853;28;20057;-68
2022/05/10 10:30:33;;;;;;;15.95;6.53;;;21.10;99.90;;;;;;5034302;28;20083;-67
2022/05/10 10:33:07;;;;;;;11.57;6.82;;;21.10;99.90;;;;;;5033979;28;20050;-66
2022/05/10 10:35:53;;;;;;;20.20;6.95;;;21.20;99.90;;;;;;5034182;28;20096;-67
2022/05/10 10:38:19;;;;;;;;;;;21.10;99.90;;;;;;5054957;28;20040;-67
2022/05/10 10:40:55;;;;;;;17.13;8.37;;;21.20;99.90;;;;;;5053842;28;19921;-65
2022/05/10 10:43:40;;;;;;;15.60;7.30;;;21.20;99.90;;;;;;5053891;28;20060;-69
2022/05/10 10:46:25;;;;;;;19.42;7.85;;;21.50;99.90;;;;;;5036297;28;20488;-69
2022/05/10 10:49:12;;;;;;;19.63;7.18;;;21.20;99.90;;;;;;5053018;28;20106;-66
2022/05/10 10:51:38;;;;;;;17.92;8.02;;;20.80;99.90;;;;;;5053451;28;20127;-67
2022/05/10 10:54:04;;;;;;;21.77;8.30;;;20.80;99.90;;;;;;5053577;28;20091;-66
2022/05/10 10:56:30;;;;;;;16.00;8.00;;;21.00;99.90;;;;;;5053721;28;20049;-67
2022/05/10 10:59:14;;;;;;;15.68;8.40;;;20.80;99.90;;;;;;5053316;28;20052;-67
2022/05/10 11:01:45;;;;;;;15.48;8.60;;;20.50;99.90;;;;;;5053498;28;20587;-68
2022/05/10 11:04:32;;;;;;;16.75;8.30;;;20.90;99.90;;;;;;5053318;28;20051;-65
2022/05/10 11:06:57;;;;;;;14.93;9.27;;;20.80;99.90;;;;;;5053233;28;20044;-66
2022/05/10 11:09:42;;;;;;;15.98;9.35;;;20.70;99.90;;;;;;5053465;28;20041;-68
2022/05/10 11:12:20;;;;;;;21.17;9.73;;;20.90;99.90;;;;;;5035475;28;20048;-67
2022/05/10 11:15:07;;;;;;;15.73;9.68;;;21.00;99.90;;;;;;5053219;28;20053;-66
2022/05/10 11:17:52;;;;;;;13.82;9.40;;;21.10;99.90;;;;;;5053200;28;20132;-68
2022/05/10 11:20:56;;;;;;;17.25;8.90;;;21.10;99.90;;;;;;5053657;28;20048;-69
2022/05/10 11:23:42;;;;;;;20.88;9.57;;;21.30;99.90;;;;;;5052948;28;20057;-70
2022/05/10 11:26:27;;;;;;;17.77;10.15;;;21.20;99.90;;;;;;5053027;28;20102;-68
2022/05/10 11:29:24;;;;;;;17.65;9.73;;;21.30;99.90;;;;;;5052895;28;20048;-69
2022/05/10 11:32:43;;;;;;;23.67;9.15;;;21.30;99.90;;;;;;5055657;28;20044;-69
2022/05/10 11:35:08;;;;;;;;;;;21.00;99.90;;;;;;5033260;28;20125;-68
2022/05/10 11:37:42;;;;;;;19.47;10.73;;;21.10;99.90;;;;;;5052903;28;20360;-69
2022/05/10 11:40:17;;;;;;;15.80;9.32;;;21.20;99.90;;;;;;5052464;28;20037;-69
2022/05/10 11:43:12;;;;;;;13.85;9.23;;;20.90;99.90;;;;;;5052658;28;20049;-69
2022/05/10 11:46:11;;;;;;;13.10;8.32;;;21.50;99.90;;;;;;5052573;28;20041;-68
2022/05/10 11:48:58;;;;;;;14.48;6.90;;;21.40;99.90;;;;;;5052473;28;20048;-69
2022/05/10 11:51:45;;;;;;;13.65;5.50;;;21.50;99.90;;;;;;5052697;28;20048;-68
2022/05/10 11:54:38;;;;;;;8.55;5.18;;;21.40;99.90;;;;;;5052672;28;20051;-68
2022/05/10 11:57:08;;;;;;;12.15;5.55;;;21.40;99.90;;;;;;5052571;28;20049;-68
2022/05/10 11:59:37;;;;;;;18.55;5.60;;;21.60;99.90;;;;;;5034513;28;20120;-69
2022/05/10 12:02:04;;;;;;;23.00;5.32;;;21.60;99.90;;;;;;5052482;28;20053;-68
2022/05/10 12:04:40;;;;;;;19.98;4.55;;;21.40;99.90;;;;;;5052220;28;20511;-67
2022/05/10 12:07:22;;;;;;;16.35;5.10;;;21.00;99.90;;;;;;5052306;28;20037;-68
2022/05/10 12:10:25;;;;;;;19.52;5.60;;;21.50;99.90;;;;;;5052091;28;20055;-68
2022/05/10 12:12:56;;;;;;;17.77;5.03;;;21.50;99.90;;;;;;5041094;28;20068;-69
2022/05/10 12:21:24;;;;;;;8.32;4.20;;;21.40;99.90;;;;;;5032110;28;20053;-67
2022/05/10 12:24:11;;;;;;;12.70;4.07;;;21.90;99.90;;;;;;5052186;28;20048;-69
2022/05/10 12:26:51;;;;;;;12.00;3.33;;;21.30;99.90;;;;;;5051872;28;20053;-69
2022/05/10 12:29:36;;;;;;;21.10;3.30;;;21.70;99.90;;;;;;5052039;28;20052;-69
2022/05/10 12:32:09;;;;;;;9.27;3.30;;;21.50;99.90;;;;;;5050915;28;20126;-67
2022/05/10 12:34:46;;;;;;;8.65;3.60;;;21.80;99.90;;;;;;5051850;28;20064;-69
2022/05/10 12:37:33;;;;;;;9.38;3.42;;;21.00;99.90;;;;;;5051948;28;20053;-68
2022/05/10 12:39:58;;;;;;;;;;;21.00;99.90;;;;;;5052462;28;20041;-67
2022/05/10 12:42:40;;;;;;;11.60;2.67;;;21.20;99.90;;;;;;5033773;28;19927;-70
2022/05/10 12:45:36;;;;;;;6.60;2.40;;;21.00;99.90;;;;;;5052027;28;20144;-66
2022/05/10 12:48:18;;;;;;;7.97;2.67;;;21.00;99.90;;;;;;5056205;28;20049;-69
2022/05/10 12:51:27;;;;;;;10.85;2.00;;;20.90;99.90;;;;;;5055819;28;20507;-68
2022/05/10 12:54:20;;;;;;;11.52;1.80;;;21.00;97.60;;;;;;5038290;28;20045;-71
2022/05/10 12:57:10;;;;;;;11.02;3.08;;;20.80;95.80;;;;;;5055810;28;20507;-69
2022/05/10 13:00:07;;;;;;;7.13;1.70;;;21.30;95.20;;;;;;5055825;28;20099;-69
2022/05/10 13:02:34;;;;;;;;;;;21.10;92.30;;;;;;5053489;28;20065;-69
2022/05/10 13:05:04;;;;;;;9.63;2.33;;;21.00;91.30;;;;;;5038128;28;19944;-68
2022/05/10 13:07:54;;;;;;;20.00;4.18;;;20.90;93.20;;;;;;5055844;28;20052;-68
2022/05/10 13:10:23;;;;;;;11.77;3.88;;;20.60;99.90;;;;;;5021603;28;20048;-70
2022/05/10 13:13:03;;;;;;;11.70;3.40;;;20.50;99.90;;;;;;5055515;28;20618;-73
2022/05/10 13:15:30;;;;;;;8.55;3.28;;;20.00;99.90;;;;;;5055826;28;20060;-70
2022/05/10 13:17:58;;;;;;;7.13;3.72;;;19.60;99.90;;;;;;5055520;28;20091;-68
2022/05/10 13:20:27;;;;;;;12.60;4.28;;;19.40;99.90;;;;;;5055568;28;20041;-67
2022/05/10 13:22:55;;;;;;;7.53;3.80;;;19.50;99.90;;;;;;5055285;28;20052;-72
2022/05/10 13:25:29;;;;;;;10.65;4.95;;;19.40;99.90;;;;;;5055413;28;20084;-70